createdAt,value
2022-12-25T00:02:18.192Z,2.20
2022-12-25T00:04:46.305Z,2.43
2022-12-25T00:07:14.393Z,2.37
2022-12-25T00:09:43.862Z,2.43
2022-12-25T00:12:12.024Z,2.33
2022-12-25T00:14:40.078Z,2.37
2022-12-25T00:17:08.086Z,2.27
2022-12-25T00:19:36.082Z,2.03
2022-12-25T00:22:04.318Z,2.23
2022-12-25T00:24:32.586Z,1.87
2022-12-25T00:27:02.177Z,2.10
2022-12-25T00:29:30.449Z,2.30
2022-12-25T00:31:58.492Z,2.33
2022-12-25T00:34:26.592Z,1.90
2022-12-25T00:36:55.017Z,2.23
2022-12-25T00:39:23.029Z,1.87
2022-12-25T00:42:08.719Z,2.10
2022-12-25T00:44:38.219Z,2.20
2022-12-25T00:47:06.422Z,2.23
2022-12-25T00:49:34.669Z,2.30
2022-12-25T00:52:02.817Z,2.30
2022-12-25T00:54:30.899Z,1.93
2022-12-25T00:56:59.031Z,2.23
2022-12-25T00:59:27.293Z,2.20
2022-12-25T01:02:17.520Z,2.13
2022-12-25T01:04:45.873Z,2.00
2022-12-25T01:07:18.350Z,1.93
2022-12-25T01:10:07.061Z,1.80
2022-12-25T01:12:37.480Z,2.07
2022-12-25T01:15:07.181Z,1.80
2022-12-25T01:17:36.801Z,1.60
2022-12-25T01:20:06.119Z,1.90
2022-12-25T01:22:34.197Z,2.00
2022-12-25T01:25:02.469Z,2.17
2022-12-25T01:27:30.454Z,1.70
2022-12-25T01:29:58.613Z,1.67
2022-12-25T01:32:26.654Z,1.60
2022-12-25T01:34:56.561Z,1.50
2022-12-25T01:37:25.530Z,1.63
2022-12-25T01:39:53.675Z,1.93
2022-12-25T01:42:23.727Z,1.73
2022-12-25T01:45:36.753Z,1.40
2022-12-25T01:48:10.093Z,1.53
2022-12-25T01:50:42.917Z,1.53
2022-12-25T01:53:11.323Z,2.13
2022-12-25T01:55:40.354Z,1.70
2022-12-25T01:58:08.517Z,1.87
2022-12-25T02:00:36.831Z,1.70
2022-12-25T02:03:05.729Z,1.90
2022-12-25T02:05:36.313Z,1.87
2022-12-25T02:08:10.201Z,1.57
2022-12-25T02:10:39.275Z,1.60
2022-12-25T02:13:11.245Z,1.80
2022-12-25T02:15:56.307Z,1.70
2022-12-25T02:18:36.182Z,1.57
2022-12-25T02:21:21.611Z,1.77
2022-12-25T02:24:07.041Z,1.60
2022-12-25T02:26:59.241Z,1.70
2022-12-25T02:29:35.791Z,1.53
2022-12-25T02:32:13.383Z,1.60
2022-12-25T02:34:46.575Z,1.20
2022-12-25T02:37:18.847Z,1.97
2022-12-25T02:40:01.855Z,1.80
2022-12-25T02:42:59.760Z,2.37
2022-12-25T02:45:51.261Z,1.83
2022-12-25T02:48:39.970Z,1.90
2022-12-25T02:51:30.193Z,1.80
2022-12-25T02:54:19.044Z,1.67
2022-12-25T02:57:12.389Z,1.50
2022-12-25T03:00:01.418Z,1.50
2022-12-25T03:02:49.057Z,1.60
2022-12-25T03:05:49.005Z,1.70
2022-12-25T03:08:21.444Z,1.63
2022-12-25T03:11:14.524Z,1.80
2022-12-25T03:13:44.811Z,1.90
2022-12-25T03:16:30.296Z,1.87
2022-12-25T03:19:00.934Z,1.80
2022-12-25T03:21:46.845Z,2.10
2022-12-25T03:24:32.302Z,2.17
2022-12-25T03:27:00.375Z,1.90
2022-12-25T03:29:49.279Z,1.90
2022-12-25T03:32:24.085Z,1.70
2022-12-25T03:35:22.192Z,2.13
2022-12-25T03:38:16.740Z,2.03
2022-12-25T03:41:15.727Z,2.40
2022-12-25T03:44:10.354Z,2.30
2022-12-25T03:47:03.229Z,1.70
2022-12-25T03:49:53.680Z,1.67
2022-12-25T03:52:41.013Z,1.60
2022-12-25T03:55:28.961Z,1.90
2022-12-25T03:58:14.657Z,2.10
2022-12-25T04:01:00.468Z,2.23
2022-12-25T04:03:46.033Z,2.00
2022-12-25T04:06:31.524Z,1.73
2022-12-25T04:09:18.377Z,1.93
2022-12-25T04:12:03.683Z,1.50
2022-12-25T04:14:49.421Z,1.80
2022-12-25T04:17:35.300Z,1.63
2022-12-25T04:20:20.676Z,1.57
2022-12-25T04:23:06.133Z,2.10
2022-12-25T04:25:53.104Z,2.20
2022-12-25T04:28:38.685Z,2.20
2022-12-25T04:31:25.073Z,2.20
2022-12-25T04:34:10.472Z,1.90
2022-12-25T04:36:38.637Z,1.63
2022-12-25T04:39:06.805Z,1.70
2022-12-25T04:41:36.288Z,1.90
2022-12-25T04:44:04.590Z,1.97
2022-12-25T04:46:32.704Z,1.80
2022-12-25T04:49:00.839Z,2.00
2022-12-25T04:51:28.876Z,1.57
2022-12-25T04:53:57.766Z,1.67
2022-12-25T04:56:25.795Z,2.03
2022-12-25T04:58:55.151Z,2.10
2022-12-25T05:01:23.494Z,1.90
2022-12-25T05:03:51.645Z,1.50
2022-12-25T05:06:19.710Z,2.00
2022-12-25T05:08:47.794Z,2.00
2022-12-25T05:11:16.942Z,1.97
2022-12-25T05:13:45.536Z,1.70
2022-12-25T05:16:17.499Z,2.17
2022-12-25T05:18:46.298Z,2.10
2022-12-25T05:21:14.477Z,2.50
2022-12-25T05:23:48.651Z,2.20
2022-12-25T05:26:19.753Z,1.70
2022-12-25T05:28:48.032Z,1.90
2022-12-25T05:31:18.306Z,1.90
2022-12-25T05:33:46.734Z,1.83
2022-12-25T05:36:14.731Z,1.60
2022-12-25T05:38:42.701Z,1.93
2022-12-25T05:41:11.060Z,1.70
2022-12-25T05:43:39.116Z,1.87
2022-12-25T05:46:07.679Z,1.70
2022-12-25T05:48:38.612Z,1.47
2022-12-25T05:51:07.579Z,1.80
2022-12-25T05:53:36.398Z,1.57
2022-12-25T05:56:05.712Z,1.53
2022-12-25T05:58:35.120Z,1.50
2022-12-25T06:01:03.726Z,1.10
2022-12-25T06:03:31.974Z,1.30
2022-12-25T06:06:04.370Z,1.00
2022-12-25T06:08:32.495Z,1.23
2022-12-25T06:11:00.524Z,1.10
2022-12-25T06:13:28.745Z,1.20
2022-12-25T06:15:56.854Z,0.90
2022-12-25T06:18:24.958Z,0.90
2022-12-25T06:20:53.169Z,1.10
2022-12-25T06:23:22.782Z,1.10
2022-12-25T06:25:50.839Z,1.10
2022-12-25T06:28:18.863Z,1.20
2022-12-25T06:30:48.219Z,0.87
2022-12-25T06:33:16.219Z,0.83
2022-12-25T06:35:44.299Z,1.07
2022-12-25T06:38:13.051Z,1.10
2022-12-25T06:40:42.487Z,1.20
2022-12-25T06:43:10.579Z,0.90
2022-12-25T06:45:38.548Z,0.77
2022-12-25T06:48:06.950Z,1.10
2022-12-25T06:50:35.065Z,1.17
2022-12-25T06:53:03.725Z,1.33
2022-12-25T06:55:31.718Z,1.43
2022-12-25T06:58:01.228Z,1.40
2022-12-25T07:00:29.300Z,1.07
2022-12-25T07:02:57.544Z,1.20
2022-12-25T07:05:25.853Z,1.13
2022-12-25T07:07:54.299Z,1.07
2022-12-25T07:10:22.354Z,0.90
2022-12-25T07:12:50.384Z,1.40
2022-12-25T07:15:19.863Z,1.20
2022-12-25T07:17:48.130Z,1.23
2022-12-25T07:20:16.213Z,1.37
2022-12-25T07:22:44.273Z,1.40
2022-12-25T07:25:12.232Z,1.33
2022-12-25T07:27:41.284Z,0.97
2022-12-25T07:30:11.093Z,1.27
2022-12-25T07:32:44.279Z,0.90
2022-12-25T07:35:15.592Z,1.17
2022-12-25T07:37:43.643Z,1.07
2022-12-25T07:40:12.330Z,0.90
2022-12-25T07:42:40.393Z,0.93
2022-12-25T07:45:09.908Z,0.80
2022-12-25T07:47:37.905Z,1.17
2022-12-25T07:50:08.814Z,0.90
2022-12-25T07:52:43.229Z,1.03
2022-12-25T07:55:12.085Z,1.00
2022-12-25T07:57:40.262Z,1.20
2022-12-25T08:00:11.260Z,1.10
2022-12-25T08:02:39.427Z,1.30
2022-12-25T08:05:10.051Z,1.60
2022-12-25T08:07:38.596Z,1.40
2022-12-25T08:10:07.717Z,0.87
2022-12-25T08:12:35.767Z,1.17
2022-12-25T08:15:04.226Z,1.10
2022-12-25T08:17:32.234Z,1.00
2022-12-25T08:20:00.303Z,1.40
2022-12-25T08:22:29.957Z,1.00
2022-12-25T08:24:57.986Z,1.20
2022-12-25T08:27:26.336Z,1.20
2022-12-25T08:29:54.483Z,1.00
2022-12-25T08:32:22.897Z,1.00
2022-12-25T08:34:53.590Z,2.20
2022-12-25T08:37:21.753Z,1.67
2022-12-25T08:39:51.646Z,1.77
2022-12-25T08:42:19.822Z,3.77
2022-12-25T08:44:47.871Z,1.20
2022-12-25T08:47:16.102Z,1.70
2022-12-25T08:49:44.151Z,0.90
2022-12-25T08:52:12.596Z,1.20
2022-12-25T08:54:40.846Z,1.70
2022-12-25T08:57:10.284Z,1.63
2022-12-25T08:59:38.592Z,0.93
2022-12-25T09:02:06.931Z,1.50
2022-12-25T09:04:35.377Z,1.20
2022-12-25T09:07:04.552Z,1.10
2022-12-25T09:09:32.993Z,1.10
2022-12-25T09:12:01.124Z,1.42
2022-12-25T09:14:31.671Z,1.20
2022-12-25T09:16:59.725Z,1.70
2022-12-25T09:19:28.827Z,1.02
2022-12-25T09:21:56.917Z,1.20
2022-12-25T09:24:25.411Z,1.20
2022-12-25T09:26:53.539Z,0.95
2022-12-25T09:29:21.537Z,0.82
2022-12-25T09:31:50.982Z,0.73
2022-12-25T09:34:19.302Z,0.75
2022-12-25T09:36:47.465Z,1.40
2022-12-25T09:39:15.597Z,1.08
2022-12-25T09:41:55.312Z,0.70
2022-12-25T09:44:30.502Z,0.90
2022-12-25T09:47:12.913Z,1.10
2022-12-25T09:49:46.196Z,0.90
2022-12-25T09:52:18.128Z,1.10
2022-12-25T09:54:54.774Z,1.08
2022-12-25T09:57:22.823Z,0.70
2022-12-25T09:59:50.961Z,0.55
2022-12-25T10:02:37.781Z,0.80
2022-12-25T10:05:20.869Z,0.90
2022-12-25T10:07:58.517Z,0.65
2022-12-25T10:10:49.969Z,0.85
2022-12-25T10:13:48.270Z,0.90
2022-12-25T10:16:26.675Z,1.23
2022-12-25T10:19:18.078Z,0.60
2022-12-25T10:21:47.513Z,1.00
2022-12-25T10:24:29.955Z,1.10
2022-12-25T10:26:58.122Z,1.00
2022-12-25T10:29:31.776Z,1.00
2022-12-25T10:32:00.222Z,0.70
2022-12-25T10:34:29.845Z,0.80
2022-12-25T10:36:58.097Z,0.93
2022-12-25T10:39:27.493Z,1.25
2022-12-25T10:42:10.777Z,1.17
2022-12-25T10:44:38.978Z,1.00
2022-12-25T10:47:07.768Z,0.73
2022-12-25T10:49:39.803Z,1.00
2022-12-25T10:52:20.647Z,0.93
2022-12-25T10:54:49.108Z,1.00
2022-12-25T10:57:19.466Z,0.63
2022-12-25T10:59:49.260Z,1.08
2022-12-25T11:02:23.276Z,0.73
2022-12-25T11:04:59.439Z,0.90
2022-12-25T11:07:27.866Z,0.75
2022-12-25T11:10:04.632Z,0.93
2022-12-25T11:12:42.959Z,0.93
2022-12-25T11:15:35.923Z,0.98
2022-12-25T11:18:04.238Z,1.13
2022-12-25T11:20:34.228Z,1.30
2022-12-25T11:23:02.368Z,0.57
2022-12-25T11:25:30.533Z,1.10
2022-12-25T11:28:00.416Z,0.75
2022-12-25T11:30:30.315Z,0.90
2022-12-25T11:33:02.497Z,0.47
2022-12-25T11:35:39.964Z,0.75
2022-12-25T11:38:10.603Z,0.95
2022-12-25T11:40:45.937Z,0.82
2022-12-25T11:43:21.132Z,1.15
2022-12-25T11:45:53.348Z,1.33
2022-12-25T11:48:27.578Z,1.20
2022-12-25T11:51:00.654Z,0.90
2022-12-25T11:53:32.993Z,0.90
2022-12-25T11:56:07.464Z,1.10
2022-12-25T11:58:42.085Z,0.73
2022-12-25T12:01:18.903Z,0.60
2022-12-25T12:03:47.273Z,0.63
2022-12-25T12:06:21.549Z,0.65
2022-12-25T12:08:54.685Z,1.05
2022-12-25T12:11:27.891Z,0.90
2022-12-25T12:14:06.964Z,0.95
2022-12-25T12:16:36.242Z,0.60
2022-12-25T12:19:13.042Z,0.47
2022-12-25T12:21:46.919Z,1.02
2022-12-25T12:24:20.135Z,1.30
2022-12-25T12:26:49.287Z,0.93
2022-12-25T12:29:26.958Z,0.90
2022-12-25T12:31:59.841Z,1.25
2022-12-25T12:34:31.645Z,1.08
2022-12-25T12:37:04.860Z,1.20
2022-12-25T12:39:36.599Z,1.02
2022-12-25T12:42:15.437Z,1.02
2022-12-25T12:44:44.036Z,0.85
2022-12-25T12:47:31.374Z,1.20
2022-12-25T12:50:00.871Z,1.20
2022-12-25T12:52:35.515Z,1.02
2022-12-25T12:55:06.418Z,0.77
2022-12-25T12:57:39.802Z,0.93
2022-12-25T13:00:11.171Z,0.60
2022-12-25T13:03:23.057Z,0.90
2022-12-25T13:05:55.926Z,0.82
2022-12-25T13:08:34.839Z,0.90
2022-12-25T13:11:12.035Z,0.82
2022-12-25T13:13:42.968Z,1.27
2022-12-25T13:16:22.545Z,1.15
2022-12-25T13:18:52.751Z,0.98
2022-12-25T13:21:23.950Z,1.20
2022-12-25T13:23:59.926Z,1.00
2022-12-25T13:26:29.759Z,1.10
2022-12-25T13:28:58.345Z,1.02
2022-12-25T13:31:28.105Z,1.05
2022-12-25T13:33:59.892Z,0.95
2022-12-25T13:36:30.440Z,1.20
2022-12-25T13:39:00.852Z,1.10
2022-12-25T13:41:53.193Z,0.85
2022-12-25T13:44:24.401Z,0.68
2022-12-25T13:46:52.704Z,0.90
2022-12-25T13:49:22.648Z,1.30
2022-12-25T13:51:51.861Z,1.20
2022-12-25T13:54:21.339Z,1.42
2022-12-25T13:56:51.900Z,1.27
2022-12-25T13:59:22.969Z,1.20
2022-12-25T14:01:52.628Z,1.27
2022-12-25T14:04:23.412Z,1.48
2022-12-25T14:06:52.484Z,1.30
2022-12-25T14:09:22.155Z,1.23
2022-12-25T14:11:53.683Z,1.10
2022-12-25T14:14:24.597Z,1.48
2022-12-25T14:16:57.379Z,1.20
2022-12-25T14:19:28.508Z,1.30
2022-12-25T14:22:01.363Z,1.45
2022-12-25T14:24:33.367Z,1.42
2022-12-25T14:27:03.781Z,1.33
2022-12-25T14:29:38.145Z,1.50
2022-12-25T14:32:08.315Z,1.85
2022-12-25T14:34:36.765Z,1.42
2022-12-25T14:37:07.309Z,1.48
2022-12-25T14:39:38.479Z,1.50
2022-12-25T14:42:15.435Z,1.50
2022-12-25T14:44:44.804Z,1.60
2022-12-25T14:47:20.009Z,1.85
2022-12-25T14:49:48.911Z,1.40
2022-12-25T14:52:21.533Z,1.42
2022-12-25T14:54:54.297Z,1.50
2022-12-25T14:57:29.352Z,1.40
2022-12-25T15:00:03.386Z,1.73
2022-12-25T15:02:41.673Z,2.20
2022-12-25T15:05:26.241Z,1.73
2022-12-25T15:08:20.671Z,1.83
2022-12-25T15:11:01.093Z,1.73
2022-12-25T15:13:31.225Z,2.10
2022-12-25T15:16:04.337Z,2.20
2022-12-25T15:18:37.550Z,2.07
2022-12-25T15:21:05.996Z,2.23
2022-12-25T15:23:34.041Z,2.05
2022-12-25T15:26:03.505Z,1.92
2022-12-25T15:28:31.638Z,2.10
2022-12-25T15:30:59.647Z,2.40
2022-12-25T15:33:27.681Z,1.92
2022-12-25T15:35:55.796Z,2.10
2022-12-25T15:38:24.322Z,2.90
2022-12-25T15:40:52.921Z,2.38
2022-12-25T15:43:40.588Z,2.03
2022-12-25T15:46:10.552Z,2.20
2022-12-25T15:48:38.621Z,2.63
2022-12-25T15:51:07.201Z,3.00
2022-12-25T15:53:35.253Z,2.73
2022-12-25T15:56:03.302Z,2.37
2022-12-25T15:58:32.733Z,2.73
2022-12-25T16:01:00.792Z,2.30
2022-12-25T16:03:28.858Z,2.33
2022-12-25T16:05:57.022Z,2.40
2022-12-25T16:08:25.735Z,2.10
2022-12-25T16:10:54.952Z,1.50
2022-12-25T16:13:23.154Z,1.80
2022-12-25T16:15:52.648Z,2.00
2022-12-25T16:18:21.420Z,2.07
2022-12-25T16:20:49.593Z,2.40
2022-12-25T16:23:18.127Z,2.50
2022-12-25T16:25:46.215Z,2.43
2022-12-25T16:28:14.409Z,2.80
2022-12-25T16:30:43.451Z,2.20
2022-12-25T16:33:16.014Z,2.30
2022-12-25T16:35:44.180Z,2.43
2022-12-25T16:38:12.477Z,1.67
2022-12-25T16:40:40.590Z,2.20
2022-12-25T16:43:08.627Z,2.03
2022-12-25T16:45:40.557Z,2.57
2022-12-25T16:48:09.009Z,2.23
2022-12-25T16:50:41.200Z,1.80
2022-12-25T16:53:09.710Z,2.30
2022-12-25T16:55:38.869Z,2.27
2022-12-25T16:58:08.159Z,3.00
2022-12-25T17:00:36.282Z,1.53
2022-12-25T17:03:05.766Z,1.60
2022-12-25T17:05:34.406Z,2.20
2022-12-25T17:08:03.943Z,2.63
2022-12-25T17:10:32.535Z,1.40
2022-12-25T17:13:00.638Z,1.80
2022-12-25T17:15:29.355Z,1.50
2022-12-25T17:17:57.314Z,1.50
2022-12-25T17:20:25.357Z,1.70
2022-12-25T17:22:53.433Z,1.70
2022-12-25T17:25:22.985Z,2.30
2022-12-25T17:27:51.788Z,1.80
2022-12-25T17:30:20.037Z,1.77
2022-12-25T17:32:48.320Z,1.53
2022-12-25T17:35:17.894Z,1.77
2022-12-25T17:37:45.950Z,1.70
2022-12-25T17:40:14.786Z,2.17
2022-12-25T17:42:44.349Z,2.30
2022-12-25T17:45:13.089Z,1.60
2022-12-25T17:47:41.545Z,1.90
2022-12-25T17:50:10.679Z,2.13
2022-12-25T17:52:38.719Z,2.40
2022-12-25T17:55:07.758Z,2.63
2022-12-25T17:57:35.959Z,2.00
2022-12-25T18:00:06.602Z,2.20
2022-12-25T18:02:35.699Z,2.80
2022-12-25T18:05:03.865Z,2.50
2022-12-25T18:07:32.241Z,2.60
2022-12-25T18:10:00.320Z,2.10
2022-12-25T18:12:28.340Z,2.40
2022-12-25T18:14:56.329Z,1.90
2022-12-25T18:17:25.787Z,2.20
2022-12-25T18:19:53.824Z,2.20
2022-12-25T18:22:22.211Z,2.63
2022-12-25T18:24:50.315Z,3.23
2022-12-25T18:27:18.511Z,3.10
2022-12-25T18:29:46.598Z,3.10
2022-12-25T18:32:15.096Z,2.47
2022-12-25T18:34:44.732Z,3.13
2022-12-25T18:37:12.716Z,3.13
2022-12-25T18:39:40.820Z,2.83
2022-12-25T18:42:26.492Z,3.83
2022-12-25T18:44:54.541Z,3.17
2022-12-25T18:47:22.715Z,3.03
2022-12-25T18:49:53.000Z,2.93
2022-12-25T18:52:49.868Z,2.67
2022-12-25T18:55:10.646Z,2.50
2022-12-25T18:57:40.818Z,2.70
2022-12-25T19:00:10.114Z,2.80
2022-12-25T19:02:38.330Z,3.10
2022-12-25T19:05:08.833Z,3.13
2022-12-25T19:07:38.121Z,2.87
2022-12-25T19:10:07.124Z,2.77
2022-12-25T19:12:35.253Z,2.63
2022-12-25T19:15:03.444Z,2.77
2022-12-25T19:17:32.365Z,3.03
2022-12-25T19:20:00.477Z,2.73
2022-12-25T19:22:30.472Z,2.23
2022-12-25T19:24:58.735Z,2.43
2022-12-25T19:27:26.925Z,2.53
2022-12-25T19:29:55.000Z,2.50
2022-12-25T19:32:23.585Z,2.50
2022-12-25T19:34:51.710Z,2.37
2022-12-25T19:37:20.426Z,3.40
2022-12-25T19:39:50.045Z,2.80
2022-12-25T19:42:18.981Z,2.40
2022-12-25T19:44:47.077Z,2.30
2022-12-25T19:47:15.343Z,2.77
2022-12-25T19:49:44.354Z,2.37
2022-12-25T19:52:14.497Z,32.23
2022-12-25T19:54:42.467Z,4.20
2022-12-25T19:57:11.949Z,3.90
2022-12-25T19:59:40.148Z,3.73
2022-12-25T20:02:08.299Z,3.43
2022-12-25T20:04:36.509Z,3.63
2022-12-25T20:07:04.507Z,3.60
2022-12-25T20:09:32.827Z,4.27
2022-12-25T20:12:00.845Z,3.90
2022-12-25T20:14:30.348Z,5.17
2022-12-25T20:16:58.512Z,5.20
2022-12-25T20:19:26.891Z,5.00
2022-12-25T20:21:55.391Z,5.17
2022-12-25T20:24:24.749Z,5.30
2022-12-25T20:26:58.875Z,4.63
2022-12-25T20:29:27.178Z,5.37
2022-12-25T20:31:56.711Z,5.40
2022-12-25T20:34:24.768Z,5.53
2022-12-25T20:36:53.334Z,4.70
2022-12-25T20:39:21.410Z,5.53
2022-12-25T20:41:49.489Z,5.17
2022-12-25T20:44:17.626Z,5.87
2022-12-25T20:46:46.072Z,7.20
2022-12-25T20:49:15.583Z,6.70
2022-12-25T20:51:43.666Z,7.27
2022-12-25T20:54:12.786Z,7.23
2022-12-25T20:56:40.798Z,7.70
2022-12-25T20:59:11.668Z,7.00
2022-12-25T21:01:39.879Z,7.73
2022-12-25T21:04:12.879Z,9.00
2022-12-25T21:06:45.495Z,9.87
2022-12-25T21:09:13.506Z,12.63
2022-12-25T21:11:41.671Z,9.77
2022-12-25T21:14:11.291Z,9.03
2022-12-25T21:16:39.545Z,8.80
2022-12-25T21:19:07.586Z,7.73
2022-12-25T21:21:36.616Z,8.03
2022-12-25T21:24:06.415Z,8.80
2022-12-25T21:26:34.906Z,9.03
2022-12-25T21:29:04.327Z,8.90
2022-12-25T21:31:53.497Z,7.80
2022-12-25T21:34:20.592Z,7.63
2022-12-25T21:36:48.643Z,7.53
2022-12-25T21:39:18.417Z,7.30
2022-12-25T21:41:46.837Z,7.47
2022-12-25T21:44:14.890Z,7.77
2022-12-25T21:46:42.976Z,8.30
2022-12-25T21:49:11.099Z,8.73
2022-12-25T21:51:56.703Z,7.67
2022-12-25T21:54:26.107Z,7.40
2022-12-25T21:56:54.054Z,7.33
2022-12-25T21:59:23.176Z,6.13
2022-12-25T22:01:52.449Z,6.63
2022-12-25T22:04:22.429Z,10.90
2022-12-25T22:07:07.610Z,7.60
2022-12-25T22:09:37.952Z,6.00
2022-12-25T22:12:27.275Z,5.10
2022-12-25T22:15:02.986Z,4.93
2022-12-25T22:17:50.382Z,4.80
2022-12-25T22:20:20.306Z,5.20
2022-12-25T22:22:48.538Z,5.23
2022-12-25T22:25:18.992Z,4.50
2022-12-25T22:27:48.438Z,3.50
2022-12-25T22:30:18.942Z,3.67
2022-12-25T22:32:47.416Z,3.90
2022-12-25T22:35:16.482Z,4.10
2022-12-25T22:37:45.163Z,4.33
2022-12-25T22:40:15.919Z,5.03
2022-12-25T22:42:45.527Z,6.80
2022-12-25T22:45:13.807Z,11.57
2022-12-25T22:47:42.514Z,5.17
2022-12-25T22:50:11.922Z,4.70
2022-12-25T22:52:40.214Z,5.00
2022-12-25T22:55:10.264Z,6.17
2022-12-25T22:57:38.753Z,5.43
2022-12-25T23:00:09.953Z,7.90
2022-12-25T23:02:38.191Z,7.00
2022-12-25T23:05:07.393Z,7.57
2022-12-25T23:07:35.444Z,8.07
2022-12-25T23:10:03.397Z,8.40
2022-12-25T23:12:48.617Z,7.40
2022-12-25T23:15:18.233Z,7.37
2022-12-25T23:18:03.679Z,6.73
2022-12-25T23:20:49.599Z,6.27
2022-12-25T23:23:35.828Z,5.40
2022-12-25T23:26:10.265Z,4.43
2022-12-25T23:28:57.625Z,5.23
2022-12-25T23:31:30.058Z,4.03
2022-12-25T23:33:58.360Z,4.17
2022-12-25T23:36:26.474Z,4.60
2022-12-25T23:38:54.570Z,4.17
2022-12-25T23:41:22.709Z,4.27
2022-12-25T23:43:50.952Z,4.33
2022-12-25T23:46:18.981Z,5.20
2022-12-25T23:48:48.853Z,4.73
2022-12-25T23:51:16.863Z,5.13
2022-12-25T23:53:44.880Z,5.20
2022-12-25T23:56:13.400Z,5.83
2022-12-25T23:58:41.685Z,5.63
